sensor_id;sensor_type;location;lat;lon;timestamp;P1;durP1;ratioP1;P2;durP2;ratioP2
75914;SDS011;64593;51.050;13.780;2023-03-01T07:08:36;13.90;;;7.95;;
75914;SDS011;64593;51.050;13.780;2023-03-01T07:13:37;29.90;;;12.85;;
75914;SDS011;64593;51.050;13.780;2023-03-01T07:18:40;18.48;;;11.18;;
75914;SDS011;64593;51.050;13.780;2023-03-01T07:23:43;24.67;;;9.95;;
75914;SDS011;64593;51.050;13.780;2023-03-01T07:28:48;16.60;;;8.82;;
75914;SDS011;64593;51.050;13.780;2023-03-01T07:34:16;22.90;;;12.93;;
75914;SDS011;64593;51.050;13.780;2023-03-01T07:39:22;23.92;;;10.60;;
75914;SDS011;64593;51.050;13.780;2023-03-01T07:44:27;12.98;;;6.28;;
75914;SDS011;64593;51.050;13.780;2023-03-01T07:49:29;28.67;;;16.23;;
75914;SDS011;64593;51.050;13.780;2023-03-01T07:54:31;27.17;;;14.00;;
75914;SDS011;64593;51.050;13.780;2023-03-01T07:59:37;22.40;;;10.55;;
75914;SDS011;64593;51.050;13.780;2023-03-01T08:04:39;30.55;;;16.00;;
75914;SDS011;64593;51.050;13.780;2023-03-01T08:09:41;21.65;;;10.93;;
75914;SDS011;64593;51.050;13.780;2023-03-01T08:14:43;14.50;;;7.95;;
75914;SDS011;64593;51.050;13.780;2023-03-01T08:24:51;19.75;;;10.98;;
75914;SDS011;64593;51.050;13.780;2023-03-01T08:29:53;28.73;;;16.13;;
75914;SDS011;64593;51.050;13.780;2023-03-01T08:34:54;29.13;;;14.50;;
75914;SDS011;64593;51.050;13.780;2023-03-01T08:39:59;16.30;;;9.50;;
75914;SDS011;64593;51.050;13.780;2023-03-01T08:45:02;14.15;;;9.13;;
75914;SDS011;64593;51.050;13.780;2023-03-01T08:50:04;20.05;;;9.13;;
75914;SDS011;64593;51.050;13.780;2023-03-01T08:55:07;25.55;;;11.43;;
75914;SDS011;64593;51.050;13.780;2023-03-01T09:00:09;33.03;;;17.70;;
75914;SDS011;64593;51.050;13.780;2023-03-01T09:05:18;22.35;;;12.27;;
75914;SDS011;64593;51.050;13.780;2023-03-01T09:10:23;22.80;;;12.82;;
75914;SDS011;64593;51.050;13.780;2023-03-01T09:15:25;28.42;;;13.82;;
75914;SDS011;64593;51.050;13.780;2023-03-01T09:20:27;22.83;;;12.00;;
75914;SDS011;64593;51.050;13.780;2023-03-01T09:25:34;11.10;;;7.50;;
75914;SDS011;64593;51.050;13.780;2023-03-01T09:30:36;25.00;;;14.75;;
75914;SDS011;64593;51.050;13.780;2023-03-01T09:35:37;21.42;;;11.05;;
75914;SDS011;64593;51.050;13.780;2023-03-01T09:40:53;28.35;;;16.40;;
75914;SDS011;64593;51.050;13.780;2023-03-01T09:45:55;27.80;;;13.70;;
75914;SDS011;64593;51.050;13.780;2023-03-01T09:51:02;36.55;;;20.98;;
75914;SDS011;64593;51.050;13.780;2023-03-01T09:56:18;26.95;;;13.68;;
75914;SDS011;64593;51.050;13.780;2023-03-01T10:01:29;30.08;;;16.40;;
75914;SDS011;64593;51.050;13.780;2023-03-01T10:06:38;35.22;;;13.35;;
75914;SDS011;64593;51.050;13.780;2023-03-01T10:11:47;32.20;;;18.27;;
75914;SDS011;64593;51.050;13.780;2023-03-01T10:16:53;25.88;;;14.90;;
75914;SDS011;64593;51.050;13.780;2023-03-01T10:22:16;28.00;;;15.00;;
75914;SDS011;64593;51.050;13.780;2023-03-01T10:27:36;32.75;;;21.83;;
75914;SDS011;64593;51.050;13.780;2023-03-01T10:32:46;29.83;;;16.10;;
75914;SDS011;64593;51.050;13.780;2023-03-01T10:43:00;23.30;;;14.93;;
75914;SDS011;64593;51.050;13.780;2023-03-01T10:48:08;26.60;;;14.88;;
75914;SDS011;64593;51.050;13.780;2023-03-01T10:53:22;16.25;;;9.25;;
75914;SDS011;64593;51.050;13.780;2023-03-01T10:58:34;21.30;;;11.32;;
75914;SDS011;64593;51.050;13.780;2023-03-01T11:09:21;15.93;;;9.55;;
75914;SDS011;64593;51.050;13.780;2023-03-01T11:14:34;15.52;;;9.48;;
75914;SDS011;64593;51.050;13.780;2023-03-01T11:20:23;24.25;;;14.18;;
75914;SDS011;64593;51.050;13.780;2023-03-01T11:25:31;24.88;;;11.65;;
75914;SDS011;64593;51.050;13.780;2023-03-01T11:30:46;18.83;;;10.43;;
75914;SDS011;64593;51.050;13.780;2023-03-01T11:41:36;16.17;;;8.82;;
75914;SDS011;64593;51.050;13.780;2023-03-01T12:03:21;15.73;;;9.68;;
75914;SDS011;64593;51.050;13.780;2023-03-01T12:08:43;16.27;;;8.13;;
75914;SDS011;64593;51.050;13.780;2023-03-01T12:24:31;20.00;;;11.65;;
75914;SDS011;64593;51.050;13.780;2023-03-01T12:29:44;27.00;;;14.40;;
75914;SDS011;64593;51.050;13.780;2023-03-01T12:34:56;19.42;;;9.52;;
75914;SDS011;64593;51.050;13.780;2023-03-01T12:51:12;24.90;;;12.75;;
75914;SDS011;64593;51.050;13.780;2023-03-01T12:56:18;23.92;;;13.05;;
75914;SDS011;64593;51.050;13.780;2023-03-01T13:06:57;20.38;;;11.82;;
75914;SDS011;64593;51.050;13.780;2023-03-01T13:23:48;23.15;;;13.27;;
75914;SDS011;64593;51.050;13.780;2023-03-01T13:28:53;22.77;;;12.57;;
75914;SDS011;64593;51.050;13.780;2023-03-01T13:33:58;30.52;;;19.70;;
75914;SDS011;64593;51.050;13.780;2023-03-01T13:39:03;18.33;;;10.20;;
75914;SDS011;64593;51.050;13.780;2023-03-01T13:44:33;25.25;;;12.50;;
75914;SDS011;64593;51.050;13.780;2023-03-01T13:49:41;21.80;;;11.77;;
75914;SDS011;64593;51.050;13.780;2023-03-01T13:54:47;22.90;;;10.50;;
75914;SDS011;64593;51.050;13.780;2023-03-01T13:59:51;33.50;;;19.42;;
75914;SDS011;64593;51.050;13.780;2023-03-01T14:04:59;19.60;;;9.98;;
75914;SDS011;64593;51.050;13.780;2023-03-01T14:10:29;26.02;;;14.77;;
75914;SDS011;64593;51.050;13.780;2023-03-01T14:21:47;20.63;;;9.60;;
75914;SDS011;64593;51.050;13.780;2023-03-01T14:26:50;18.50;;;11.63;;
75914;SDS011;64593;51.050;13.780;2023-03-01T14:32:18;29.10;;;15.80;;
75914;SDS011;64593;51.050;13.780;2023-03-01T14:37:33;23.27;;;10.63;;
75914;SDS011;64593;51.050;13.780;2023-03-01T14:42:41;30.20;;;20.85;;
75914;SDS011;64593;51.050;13.780;2023-03-01T14:48:08;21.52;;;12.75;;
75914;SDS011;64593;51.050;13.780;2023-03-01T14:53:33;7.85;;;4.80;;
75914;SDS011;64593;51.050;13.780;2023-03-01T14:58:57;22.73;;;11.48;;
75914;SDS011;64593;51.050;13.780;2023-03-01T15:04:05;18.55;;;8.77;;
75914;SDS011;64593;51.050;13.780;2023-03-01T15:29:02;13.23;;;6.80;;
75914;SDS011;64593;51.050;13.780;2023-03-01T15:34:29;21.40;;;9.85;;
75914;SDS011;64593;51.050;13.780;2023-03-01T15:39:56;14.65;;;7.20;;
75914;SDS011;64593;51.050;13.780;2023-03-01T15:45:39;18.92;;;10.00;;
75914;SDS011;64593;51.050;13.780;2023-03-01T15:50:41;22.48;;;10.20;;
75914;SDS011;64593;51.050;13.780;2023-03-01T16:06:54;16.48;;;8.05;;
75914;SDS011;64593;51.050;13.780;2023-03-01T16:12:02;17.35;;;9.63;;
75914;SDS011;64593;51.050;13.780;2023-03-01T16:17:04;13.68;;;7.45;;
75914;SDS011;64593;51.050;13.780;2023-03-01T16:22:09;21.00;;;8.73;;
75914;SDS011;64593;51.050;13.780;2023-03-01T16:27:12;19.23;;;10.60;;
75914;SDS011;64593;51.050;13.780;2023-03-01T16:32:19;17.73;;;10.25;;
75914;SDS011;64593;51.050;13.780;2023-03-01T16:38:01;20.98;;;9.57;;
75914;SDS011;64593;51.050;13.780;2023-03-01T16:43:09;21.83;;;10.32;;
75914;SDS011;64593;51.050;13.780;2023-03-01T16:48:18;18.92;;;9.85;;
75914;SDS011;64593;51.050;13.780;2023-03-01T16:53:47;17.05;;;9.10;;
75914;SDS011;64593;51.050;13.780;2023-03-01T16:58:52;20.13;;;10.35;;
75914;SDS011;64593;51.050;13.780;2023-03-01T17:03:56;21.88;;;11.00;;
75914;SDS011;64593;51.050;13.780;2023-03-01T17:09:12;18.42;;;9.57;;
75914;SDS011;64593;51.050;13.780;2023-03-01T17:32:15;21.33;;;10.80;;
75914;SDS011;64593;51.050;13.780;2023-03-01T17:44:20;24.83;;;11.68;;
75914;SDS011;64593;51.050;13.780;2023-03-01T17:50:04;21.33;;;10.25;;
75914;SDS011;64593;51.050;13.780;2023-03-01T18:03:18;23.15;;;11.00;;
75914;SDS011;64593;51.050;13.780;2023-03-01T18:09:14;26.88;;;11.52;;
75914;SDS011;64593;51.050;13.780;2023-03-01T18:15:51;23.27;;;9.43;;
75914;SDS011;64593;51.050;13.780;2023-03-01T18:33:49;22.20;;;10.18;;
75914;SDS011;64593;51.050;13.780;2023-03-01T18:40:09;23.30;;;9.63;;
75914;SDS011;64593;51.050;13.780;2023-03-01T18:46:16;21.75;;;10.23;;
75914;SDS011;64593;51.050;13.780;2023-03-01T18:51:57;22.23;;;9.40;;
75914;SDS011;64593;51.050;13.780;2023-03-01T19:03:57;21.77;;;10.23;;
75914;SDS011;64593;51.050;13.780;2023-03-01T19:22:08;22.95;;;10.68;;
75914;SDS011;64593;51.050;13.780;2023-03-01T19:27:38;17.85;;;8.77;;
75914;SDS011;64593;51.050;13.780;2023-03-01T19:39:53;23.25;;;10.88;;
75914;SDS011;64593;51.050;13.780;2023-03-01T19:46:14;22.60;;;10.27;;
75914;SDS011;64593;51.050;13.780;2023-03-01T19:59:01;20.77;;;11.63;;
75914;SDS011;64593;51.050;13.780;2023-03-01T20:04:42;22.23;;;12.00;;
75914;SDS011;64593;51.050;13.780;2023-03-01T20:10:30;32.45;;;13.75;;
75914;SDS011;64593;51.050;13.780;2023-03-01T20:15:33;28.55;;;12.00;;
75914;SDS011;64593;51.050;13.780;2023-03-01T20:20:35;27.63;;;11.50;;
75914;SDS011;64593;51.050;13.780;2023-03-01T20:26:06;39.50;;;16.90;;
75914;SDS011;64593;51.050;13.780;2023-03-01T20:31:36;30.08;;;14.63;;
75914;SDS011;64593;51.050;13.780;2023-03-01T20:36:40;32.78;;;14.07;;
75914;SDS011;64593;51.050;13.780;2023-03-01T20:42:09;27.63;;;13.48;;
75914;SDS011;64593;51.050;13.780;2023-03-01T20:47:37;34.03;;;15.43;;
75914;SDS011;64593;51.050;13.780;2023-03-01T20:52:39;32.78;;;16.67;;
75914;SDS011;64593;51.050;13.780;2023-03-01T20:57:47;41.78;;;17.95;;
75914;SDS011;64593;51.050;13.780;2023-03-01T21:02:49;34.70;;;15.77;;
75914;SDS011;64593;51.050;13.780;2023-03-01T21:08:16;42.72;;;18.75;;
75914;SDS011;64593;51.050;13.780;2023-03-01T21:13:18;44.97;;;19.13;;
75914;SDS011;64593;51.050;13.780;2023-03-01T21:18:21;36.30;;;17.42;;
75914;SDS011;64593;51.050;13.780;2023-03-01T21:23:48;32.85;;;15.30;;
75914;SDS011;64593;51.050;13.780;2023-03-01T21:28:53;36.83;;;16.20;;
75914;SDS011;64593;51.050;13.780;2023-03-01T21:34:05;41.08;;;18.90;;
75914;SDS011;64593;51.050;13.780;2023-03-01T21:39:07;42.90;;;19.65;;
75914;SDS011;64593;51.050;13.780;2023-03-01T21:44:10;43.33;;;19.85;;
75914;SDS011;64593;51.050;13.780;2023-03-01T21:56:28;39.00;;;18.77;;
75914;SDS011;64593;51.050;13.780;2023-03-01T22:02:53;26.33;;;13.73;;
75914;SDS011;64593;51.050;13.780;2023-03-01T22:08:51;44.85;;;20.80;;
75914;SDS011;64593;51.050;13.780;2023-03-01T22:21:32;46.03;;;22.00;;
75914;SDS011;64593;51.050;13.780;2023-03-01T22:32:09;37.80;;;17.48;;
75914;SDS011;64593;51.050;13.780;2023-03-01T22:37:36;40.75;;;19.58;;
75914;SDS011;64593;51.050;13.780;2023-03-01T22:42:38;42.88;;;20.17;;
75914;SDS011;64593;51.050;13.780;2023-03-01T22:48:05;36.70;;;17.27;;
75914;SDS011;64593;51.050;13.780;2023-03-01T22:53:07;41.53;;;16.58;;
75914;SDS011;64593;51.050;13.780;2023-03-01T22:58:34;40.08;;;18.85;;
